createdAt,value
2019-03-19T00:02:26.261Z,4.70
2019-03-19T00:05:09.664Z,4.60
2019-03-19T00:08:00.721Z,4.50
2019-03-19T00:10:44.496Z,4.50
2019-03-19T00:13:35.990Z,4.50
2019-03-19T00:16:19.317Z,4.50
2019-03-19T00:19:10.471Z,4.40
2019-03-19T00:21:54.122Z,4.40
2019-03-19T00:27:47.520Z,4.30
2019-03-19T00:30:31.720Z,4.40
2019-03-19T00:33:15.052Z,4.30
2019-03-19T00:35:59.089Z,4.30
2019-03-19T00:38:50.160Z,4.30
2019-03-19T00:41:33.727Z,4.20
2019-03-19T00:44:24.893Z,4.20
2019-03-19T00:47:13.492Z,4.20
2019-03-19T00:49:57.291Z,4.20
2019-03-19T00:52:48.540Z,4.10
2019-03-19T00:55:40.340Z,4.10
2019-03-19T00:58:25.126Z,4.10
2019-03-19T01:01:08.998Z,4.10
2019-03-19T01:04:00.153Z,4.10
2019-03-19T01:06:32.179Z,4.20
2019-03-19T01:12:05.725Z,4.20
2019-03-19T01:14:49.490Z,4.30
2019-03-19T01:17:40.820Z,4.30
2019-03-19T01:20:14.535Z,4.30
2019-03-19T01:22:46.607Z,4.30
2019-03-19T01:25:31.371Z,4.20
2019-03-19T01:28:03.550Z,4.20
2019-03-19T01:30:36.553Z,4.20
2019-03-19T01:33:20.665Z,4.20
2019-03-19T01:36:04.758Z,4.20
2019-03-19T01:38:49.098Z,4.20
2019-03-19T01:41:40.305Z,4.30
2019-03-19T01:44:24.243Z,4.30
2019-03-19T01:47:15.640Z,4.30
2019-03-19T01:49:59.556Z,4.40
2019-03-19T01:52:50.944Z,4.30
2019-03-19T01:55:34.633Z,4.30
2019-03-19T01:58:25.685Z,4.30
2019-03-19T02:01:10.787Z,4.30
2019-03-19T02:04:01.982Z,4.20
2019-03-19T02:06:45.947Z,4.20
2019-03-19T02:09:37.001Z,4.10
2019-03-19T02:12:21.455Z,4.10
2019-03-19T02:15:12.903Z,4.10
2019-03-19T02:17:56.380Z,4.20
2019-03-19T02:20:47.428Z,4.20
2019-03-19T02:23:31.444Z,4.20
2019-03-19T02:26:03.507Z,4.20
2019-03-19T02:28:48.046Z,4.20
2019-03-19T02:31:19.874Z,4.30
2019-03-19T02:34:04.197Z,4.30
2019-03-19T02:36:48.142Z,4.20
2019-03-19T02:39:39.180Z,4.20
2019-03-19T02:42:22.610Z,4.20
2019-03-19T02:45:28.838Z,4.20
2019-03-19T02:48:14.016Z,4.10
2019-03-19T02:51:05.088Z,4.00
2019-03-19T02:53:49.344Z,4.00
2019-03-19T02:56:40.617Z,4.00
2019-03-19T02:59:12.572Z,4.10
2019-03-19T03:02:03.833Z,4.10
2019-03-19T03:04:48.014Z,4.10
2019-03-19T03:07:39.159Z,4.10
2019-03-19T03:10:22.617Z,4.20
2019-03-19T03:13:14.011Z,4.20
2019-03-19T03:15:57.483Z,4.20
2019-03-19T03:18:41.737Z,4.30
2019-03-19T03:21:34.664Z,4.30
2019-03-19T03:24:24.611Z,4.30
2019-03-19T03:27:15.794Z,4.40
2019-03-19T03:30:01.115Z,4.40
2019-03-19T03:32:52.284Z,4.40
2019-03-19T03:35:37.534Z,4.50
2019-03-19T03:38:28.583Z,4.50
2019-03-19T03:41:12.627Z,4.50
2019-03-19T03:44:03.798Z,4.40
2019-03-19T03:46:47.429Z,4.40
2019-03-19T03:49:31.995Z,4.30
2019-03-19T03:52:16.194Z,4.30
2019-03-19T03:55:08.266Z,4.40
2019-03-19T03:57:52.035Z,4.40
2019-03-19T04:00:43.265Z,4.40
2019-03-19T04:03:26.766Z,4.40
2019-03-19T04:06:17.945Z,4.40
2019-03-19T04:09:01.623Z,4.50
2019-03-19T04:11:53.356Z,4.50
2019-03-19T04:14:36.825Z,4.50
2019-03-19T04:17:28.259Z,4.50
2019-03-19T04:20:01.980Z,4.50
2019-03-19T04:22:46.014Z,4.50
2019-03-19T04:25:29.791Z,4.50
2019-03-19T04:28:14.993Z,4.50
2019-03-19T04:31:06.045Z,4.50
2019-03-19T04:33:49.461Z,4.50
2019-03-19T04:36:40.503Z,4.50
2019-03-19T04:39:23.995Z,4.50
2019-03-19T04:42:15.186Z,4.50
2019-03-19T04:44:59.013Z,4.50
2019-03-19T04:47:50.205Z,4.50
2019-03-19T04:50:33.883Z,4.50
2019-03-19T04:53:24.960Z,4.50
2019-03-19T04:56:08.551Z,4.50
2019-03-19T04:58:59.746Z,4.60
2019-03-19T05:01:43.986Z,4.60
2019-03-19T05:04:35.045Z,4.50
2019-03-19T05:07:19.074Z,4.40
2019-03-19T05:10:12.237Z,4.40
2019-03-19T05:12:56.156Z,4.40
2019-03-19T05:15:39.933Z,4.50
2019-03-19T05:18:31.495Z,4.50
2019-03-19T05:21:23.914Z,4.50
2019-03-19T05:24:15.065Z,4.60
2019-03-19T05:26:57.614Z,4.60
2019-03-19T05:29:48.818Z,4.50
2019-03-19T05:32:32.832Z,4.60
2019-03-19T05:35:16.692Z,4.60
2019-03-19T05:38:00.093Z,4.70
2019-03-19T05:40:51.436Z,4.70
2019-03-19T05:43:35.738Z,4.70
2019-03-19T05:46:26.921Z,4.70
2019-03-19T05:48:58.893Z,4.70
2019-03-19T05:51:49.920Z,4.80
2019-03-19T05:54:22.020Z,4.80
2019-03-19T05:57:05.382Z,4.80
2019-03-19T05:59:56.498Z,4.90
2019-03-19T06:02:40.266Z,4.90
2019-03-19T06:05:23.672Z,4.90
2019-03-19T06:08:08.501Z,4.90
2019-03-19T06:11:02.298Z,5.00
2019-03-19T06:13:45.938Z,5.00
2019-03-19T06:16:36.969Z,5.00
2019-03-19T06:19:20.842Z,5.00
2019-03-19T06:22:12.046Z,5.00
2019-03-19T06:24:55.744Z,5.10
2019-03-19T06:27:46.940Z,5.30
2019-03-19T06:30:32.660Z,5.50
2019-03-19T06:33:16.396Z,5.60
2019-03-19T06:36:01.750Z,5.70
2019-03-19T06:38:52.859Z,5.80
2019-03-19T06:41:36.195Z,6.00
2019-03-19T06:44:27.366Z,6.10
2019-03-19T06:47:12.522Z,6.30
2019-03-19T06:49:56.531Z,6.40
2019-03-19T06:52:47.756Z,6.60
2019-03-19T06:55:31.051Z,6.70
2019-03-19T06:58:22.294Z,6.90
2019-03-19T07:01:06.735Z,7.00
2019-03-19T07:03:57.976Z,6.90
2019-03-19T07:06:42.736Z,6.80
2019-03-19T07:09:14.637Z,6.80
2019-03-19T07:11:46.654Z,6.80
2019-03-19T07:14:19.103Z,6.80
2019-03-19T07:17:03.072Z,6.80
2019-03-19T07:19:54.545Z,6.80
2019-03-19T07:22:38.185Z,6.70
2019-03-19T07:25:10.821Z,6.70
2019-03-19T07:28:01.856Z,6.70
2019-03-19T07:30:46.013Z,6.70
2019-03-19T07:33:17.891Z,6.70
2019-03-19T07:36:01.985Z,6.80
2019-03-19T07:38:53.021Z,6.90
2019-03-19T07:41:37.337Z,7.00
2019-03-19T07:44:20.965Z,7.00
2019-03-19T07:47:04.453Z,7.00
2019-03-19T07:49:55.613Z,7.10
2019-03-19T07:52:39.512Z,7.10
2019-03-19T07:55:30.451Z,7.10
2019-03-19T07:58:15.497Z,7.20
2019-03-19T08:01:06.626Z,7.10
2019-03-19T08:03:51.600Z,7.00
2019-03-19T08:06:43.086Z,6.80
2019-03-19T08:09:15.539Z,6.80
2019-03-19T08:11:47.641Z,6.80
2019-03-19T08:14:32.185Z,6.70
2019-03-19T08:17:23.372Z,6.70
2019-03-19T08:20:07.524Z,6.70
2019-03-19T08:22:58.886Z,6.70
2019-03-19T08:25:42.477Z,6.70
2019-03-19T08:28:33.857Z,6.60
2019-03-19T08:31:38.178Z,6.70
2019-03-19T08:34:29.314Z,6.70
2019-03-19T08:37:01.382Z,6.80
2019-03-19T08:39:52.730Z,6.80
2019-03-19T08:42:37.207Z,6.80
2019-03-19T08:45:28.459Z,6.90
2019-03-19T08:48:12.448Z,6.80
2019-03-19T08:50:56.721Z,6.80
2019-03-19T08:53:40.745Z,6.90
2019-03-19T08:56:31.890Z,6.90
2019-03-19T08:59:14.247Z,7.00
2019-03-19T09:02:05.447Z,7.10
2019-03-19T09:04:49.219Z,7.10
2019-03-19T09:07:31.452Z,7.20
2019-03-19T09:10:25.366Z,7.20
2019-03-19T09:13:09.140Z,7.20
2019-03-19T09:15:52.834Z,7.20
2019-03-19T09:18:44.043Z,7.20
2019-03-19T09:21:29.375Z,7.30
2019-03-19T09:24:20.399Z,7.40
2019-03-19T09:27:04.544Z,7.40
2019-03-19T09:29:48.083Z,7.50
2019-03-19T09:32:30.469Z,7.50
2019-03-19T09:35:21.611Z,7.70
2019-03-19T09:38:05.319Z,7.80
2019-03-19T09:40:49.043Z,7.90
2019-03-19T09:43:40.222Z,8.00
2019-03-19T09:46:23.867Z,8.10
2019-03-19T09:49:15.022Z,8.20
2019-03-19T09:52:00.686Z,8.30
2019-03-19T09:54:44.223Z,8.30
2019-03-19T09:57:29.160Z,8.40
2019-03-19T10:00:20.465Z,8.40
2019-03-19T10:03:05.867Z,8.30
2019-03-19T10:05:57.073Z,8.30
2019-03-19T10:08:40.699Z,8.40
2019-03-19T10:11:31.893Z,8.30
2019-03-19T10:14:15.933Z,8.30
2019-03-19T10:16:59.568Z,8.40
2019-03-19T10:19:50.984Z,8.30
2019-03-19T10:22:34.843Z,8.40
2019-03-19T10:25:26.134Z,8.40
2019-03-19T10:28:34.762Z,8.40
2019-03-19T10:31:05.107Z,8.50
2019-03-19T10:33:49.421Z,8.50
2019-03-19T10:36:40.837Z,8.50
2019-03-19T10:39:24.742Z,8.50
2019-03-19T10:42:15.883Z,8.80
2019-03-19T10:45:00.745Z,9.00
2019-03-19T10:47:45.464Z,9.00
2019-03-19T10:50:30.466Z,9.10
2019-03-19T10:53:17.056Z,9.30
2019-03-19T10:56:03.833Z,9.40
2019-03-19T11:02:22.103Z,9.30
2019-03-19T11:05:35.692Z,9.20
2019-03-19T11:08:31.449Z,9.10
2019-03-19T11:14:32.618Z,9.20
2019-03-19T11:17:23.978Z,9.20
2019-03-19T11:20:32.684Z,9.10
2019-03-19T11:26:25.461Z,9.20
2019-03-19T11:29:35.584Z,9.30
2019-03-19T11:32:19.665Z,9.40
2019-03-19T11:35:11.101Z,9.70
2019-03-19T11:37:54.566Z,9.80
2019-03-19T11:40:48.794Z,10.10
2019-03-19T11:43:39.979Z,10.10
2019-03-19T11:46:23.611Z,10.20
2019-03-19T11:49:14.906Z,10.30
2019-03-19T11:52:00.017Z,10.30
2019-03-19T11:54:51.087Z,10.30
2019-03-19T11:57:35.408Z,10.40
2019-03-19T12:00:46.059Z,10.40
2019-03-19T12:03:37.198Z,10.40
2019-03-19T12:06:09.359Z,10.10
2019-03-19T12:09:00.571Z,10.10
2019-03-19T12:11:44.389Z,9.90
2019-03-19T12:14:38.717Z,9.90
2019-03-19T12:17:22.012Z,9.90
2019-03-19T12:20:07.306Z,10.00
2019-03-19T12:22:58.497Z,10.00
2019-03-19T12:25:42.372Z,10.00
2019-03-19T12:28:39.616Z,10.10
2019-03-19T12:31:25.050Z,10.20
2019-03-19T12:34:16.415Z,10.30
2019-03-19T12:37:01.341Z,10.40
2019-03-19T12:39:52.550Z,10.30
2019-03-19T12:42:36.766Z,10.30
2019-03-19T12:45:27.852Z,10.30
2019-03-19T12:48:11.985Z,10.20
2019-03-19T12:51:03.307Z,10.20
2019-03-19T12:53:47.218Z,10.10
2019-03-19T12:56:38.182Z,10.20
2019-03-19T12:59:22.099Z,10.20
2019-03-19T13:02:13.326Z,10.30
2019-03-19T13:04:56.801Z,10.30
2019-03-19T13:07:48.090Z,10.40
2019-03-19T13:10:32.075Z,10.30
2019-03-19T13:13:23.540Z,10.20
2019-03-19T13:16:07.490Z,10.30
2019-03-19T13:18:39.622Z,10.20
2019-03-19T13:21:25.639Z,10.20
2019-03-19T13:27:26.568Z,10.00
2019-03-19T13:30:18.867Z,9.90
2019-03-19T13:33:02.430Z,9.80
2019-03-19T13:35:53.559Z,9.90
2019-03-19T13:38:37.838Z,9.90
2019-03-19T13:41:29.037Z,10.00
2019-03-19T13:44:13.098Z,10.10
2019-03-19T13:46:45.167Z,10.10
2019-03-19T13:49:28.891Z,10.10
2019-03-19T13:52:20.099Z,10.20
2019-03-19T13:55:03.609Z,10.20
2019-03-19T13:57:54.910Z,10.20
2019-03-19T14:00:39.335Z,10.10
2019-03-19T14:03:30.640Z,10.20
2019-03-19T14:06:18.926Z,10.20
2019-03-19T14:09:02.506Z,10.30
2019-03-19T14:11:55.209Z,10.40
2019-03-19T14:14:39.263Z,10.40
2019-03-19T14:17:30.229Z,10.40
2019-03-19T14:20:18.492Z,10.30
2019-03-19T14:23:09.739Z,10.30
2019-03-19T14:25:54.037Z,10.20
2019-03-19T14:28:26.220Z,10.30
2019-03-19T14:31:10.474Z,10.30
2019-03-19T14:34:02.746Z,10.30
2019-03-19T14:36:40.650Z,10.30
2019-03-19T14:39:31.738Z,10.30
2019-03-19T14:42:16.576Z,10.40
2019-03-19T14:45:07.956Z,10.40
2019-03-19T14:47:51.370Z,10.40
2019-03-19T14:50:43.764Z,10.50
2019-03-19T14:53:27.330Z,10.50
2019-03-19T14:56:18.535Z,10.40
2019-03-19T14:59:02.665Z,10.50
2019-03-19T15:01:53.789Z,10.40
2019-03-19T15:04:37.716Z,10.40
2019-03-19T15:07:28.780Z,10.30
2019-03-19T15:10:00.767Z,10.30
2019-03-19T15:12:33.090Z,10.30
2019-03-19T15:15:06.230Z,10.30
2019-03-19T15:17:57.357Z,10.30
2019-03-19T15:20:42.965Z,10.30
2019-03-19T15:23:36.758Z,10.30
2019-03-19T15:26:21.858Z,10.40
2019-03-19T15:29:13.012Z,10.40
2019-03-19T15:32:00.521Z,10.40
2019-03-19T15:34:51.894Z,10.30
2019-03-19T15:37:36.857Z,10.30
2019-03-19T15:40:29.062Z,10.20
2019-03-19T15:43:14.123Z,10.20
2019-03-19T15:49:10.464Z,10.10
2019-03-19T15:51:55.619Z,10.20
2019-03-19T15:54:46.669Z,10.10
2019-03-19T15:57:30.821Z,10.20
2019-03-19T16:00:15.633Z,10.20
2019-03-19T16:03:10.321Z,10.30
2019-03-19T16:05:54.100Z,10.20
2019-03-19T16:08:45.328Z,10.30
2019-03-19T16:11:35.032Z,10.20
2019-03-19T16:14:19.565Z,10.20
2019-03-19T16:17:10.765Z,10.20
2019-03-19T16:19:52.990Z,10.20
2019-03-19T16:22:44.269Z,10.30
2019-03-19T16:25:28.372Z,10.20
2019-03-19T16:28:19.376Z,10.10
2019-03-19T16:31:02.901Z,10.00
2019-03-19T16:33:53.994Z,10.00
2019-03-19T16:36:38.553Z,9.90
2019-03-19T16:39:29.820Z,9.90
2019-03-19T16:42:13.753Z,9.80
2019-03-19T16:45:05.304Z,9.80
2019-03-19T16:47:49.742Z,9.60
2019-03-19T16:50:41.172Z,9.50
2019-03-19T16:53:24.900Z,9.50
2019-03-19T16:56:16.081Z,9.60
2019-03-19T16:58:59.969Z,9.60
2019-03-19T17:02:01.083Z,9.50
2019-03-19T17:04:31.063Z,9.50
2019-03-19T17:07:23.944Z,9.40
2019-03-19T17:10:12.567Z,9.30
2019-03-19T17:12:58.349Z,9.30
2019-03-19T17:15:41.991Z,9.30
2019-03-19T17:18:33.196Z,9.40
2019-03-19T17:21:05.271Z,9.40
2019-03-19T17:23:37.322Z,9.40
2019-03-19T17:26:09.458Z,9.40
2019-03-19T17:29:00.796Z,9.40
2019-03-19T17:31:44.221Z,9.40
2019-03-19T17:34:35.456Z,9.40
2019-03-19T17:37:19.014Z,9.40
2019-03-19T17:40:02.446Z,9.40
2019-03-19T17:42:46.140Z,9.40
2019-03-19T17:45:38.230Z,9.40
2019-03-19T17:48:22.615Z,9.30
2019-03-19T17:51:13.662Z,9.30
2019-03-19T17:53:58.317Z,9.20
2019-03-19T17:57:08.523Z,9.20
2019-03-19T17:59:52.581Z,9.20
2019-03-19T18:02:44.019Z,9.10
2019-03-19T18:05:27.525Z,9.10
2019-03-19T18:08:18.698Z,9.00
2019-03-19T18:11:09.907Z,9.00
2019-03-19T18:14:01.088Z,9.00
2019-03-19T18:16:44.917Z,9.00
2019-03-19T18:19:36.066Z,9.00
2019-03-19T18:22:20.274Z,9.10
2019-03-19T18:25:11.455Z,9.10
2019-03-19T18:27:57.684Z,9.00
2019-03-19T18:30:48.853Z,9.00
2019-03-19T18:33:32.306Z,8.90
2019-03-19T18:36:25.675Z,8.80
2019-03-19T18:39:12.563Z,8.80
2019-03-19T18:41:44.743Z,8.70
2019-03-19T18:44:30.831Z,8.60
2019-03-19T18:47:19.234Z,8.60
2019-03-19T18:50:31.505Z,8.60
2019-03-19T18:53:44.199Z,8.50
2019-03-19T18:56:16.420Z,8.50
2019-03-19T18:59:31.392Z,8.30
2019-03-19T19:02:22.014Z,8.20
2019-03-19T19:05:13.392Z,8.20
2019-03-19T19:07:57.562Z,8.10
2019-03-19T19:10:48.792Z,8.10
2019-03-19T19:13:32.342Z,8.00
2019-03-19T19:16:23.691Z,8.10
2019-03-19T19:19:07.514Z,8.00
2019-03-19T19:22:22.876Z,7.90
2019-03-19T19:25:07.591Z,7.90
2019-03-19T19:27:58.778Z,7.80
2019-03-19T19:30:42.447Z,7.80
2019-03-19T19:33:26.520Z,7.80
2019-03-19T19:36:17.645Z,7.70
2019-03-19T19:39:01.054Z,7.70
2019-03-19T19:41:53.796Z,7.60
2019-03-19T19:44:37.835Z,7.50
2019-03-19T19:47:21.732Z,7.50
2019-03-19T19:50:13.762Z,7.40
2019-03-19T19:52:57.794Z,7.30
2019-03-19T19:55:48.855Z,7.20
2019-03-19T19:58:32.979Z,7.20
2019-03-19T20:01:17.438Z,7.10
2019-03-19T20:04:08.510Z,7.10
2019-03-19T20:06:52.157Z,7.00
2019-03-19T20:09:45.160Z,6.80
2019-03-19T20:12:34.570Z,6.80
2019-03-19T20:15:44.735Z,6.70
2019-03-19T20:18:28.517Z,6.70
2019-03-19T20:21:22.538Z,6.70
2019-03-19T20:24:07.000Z,6.70
2019-03-19T20:26:58.495Z,6.60
2019-03-19T20:29:42.654Z,6.60
2019-03-19T20:33:00.447Z,6.60
2019-03-19T20:35:52.892Z,6.50
2019-03-19T20:38:44.201Z,6.40
2019-03-19T20:41:29.873Z,6.40
2019-03-19T20:44:13.800Z,6.30
2019-03-19T20:46:59.759Z,6.30
2019-03-19T20:49:50.864Z,6.30
2019-03-19T20:52:34.655Z,6.20
2019-03-19T20:55:25.855Z,6.10
2019-03-19T20:58:10.349Z,6.10
2019-03-19T21:01:01.448Z,6.00
2019-03-19T21:03:46.057Z,6.00
2019-03-19T21:06:37.255Z,5.90
2019-03-19T21:09:23.229Z,5.80
2019-03-19T21:12:14.437Z,5.80
2019-03-19T21:14:58.672Z,5.80
2019-03-19T21:17:50.016Z,5.70
2019-03-19T21:20:22.469Z,5.70
2019-03-19T21:23:13.468Z,5.70
2019-03-19T21:25:46.046Z,5.60
2019-03-19T21:28:37.228Z,5.60
2019-03-19T21:31:21.715Z,5.60
2019-03-19T21:34:13.029Z,5.60
2019-03-19T21:36:55.048Z,5.60
2019-03-19T21:39:46.245Z,5.50
2019-03-19T21:42:29.691Z,5.50
2019-03-19T21:45:14.316Z,5.50
2019-03-19T21:48:05.822Z,5.40
2019-03-19T21:50:50.080Z,5.30
2019-03-19T21:53:41.155Z,5.30
2019-03-19T21:56:25.327Z,5.30
2019-03-19T21:59:16.599Z,5.30
2019-03-19T22:02:01.742Z,5.20
2019-03-19T22:04:52.971Z,5.20
2019-03-19T22:07:37.271Z,5.20
2019-03-19T22:13:05.479Z,5.10
2019-03-19T22:15:56.565Z,5.00
2019-03-19T22:18:40.564Z,5.00
2019-03-19T22:21:31.711Z,5.00
2019-03-19T22:24:16.561Z,5.00
2019-03-19T22:26:48.462Z,4.90
2019-03-19T22:29:20.569Z,4.90
2019-03-19T22:32:11.602Z,4.90
2019-03-19T22:34:55.658Z,4.80
2019-03-19T22:37:46.764Z,4.80
2019-03-19T22:40:30.881Z,4.70
2019-03-19T22:43:21.975Z,4.70
2019-03-19T22:46:06.440Z,4.70
2019-03-19T22:48:50.374Z,4.70
2019-03-19T22:51:34.804Z,4.60
2019-03-19T22:54:25.950Z,4.60
2019-03-19T22:57:09.719Z,4.50
2019-03-19T23:00:00.853Z,4.50
2019-03-19T23:02:46.137Z,4.40
2019-03-19T23:08:43.484Z,4.20
2019-03-19T23:11:27.745Z,4.20
2019-03-19T23:14:18.964Z,4.10
2019-03-19T23:17:03.207Z,4.00
2019-03-19T23:19:54.320Z,4.00
2019-03-19T23:22:38.907Z,4.00
2019-03-19T23:25:22.901Z,3.90
2019-03-19T23:28:15.361Z,3.90
2019-03-19T23:30:59.220Z,3.90
2019-03-19T23:33:50.694Z,3.90
2019-03-19T23:36:22.607Z,3.90
2019-03-19T23:39:13.849Z,3.90
2019-03-19T23:41:58.093Z,3.80
2019-03-19T23:44:41.479Z,3.80
2019-03-19T23:47:24.996Z,3.70
2019-03-19T23:50:16.400Z,3.60
2019-03-19T23:53:00.153Z,3.60
2019-03-19T23:55:51.558Z,3.50
2019-03-19T23:58:35.532Z,3.50
